createdAt,value
2023-01-17T00:00:06.175Z,97.04
2023-01-17T00:00:37.946Z,97.32
2023-01-17T00:01:10.812Z,97.21
2023-01-17T00:01:42.814Z,96.67
2023-01-17T00:02:18.524Z,95.68
2023-01-17T00:02:50.503Z,96.21
2023-01-17T00:03:22.356Z,96.45
2023-01-17T00:04:13.136Z,96.74
2023-01-17T00:05:03.876Z,97.54
2023-01-17T00:05:54.302Z,97.94
2023-01-17T00:06:45.363Z,97.67
2023-01-17T00:07:38.384Z,97.87
2023-01-17T00:08:32.008Z,97.59
2023-01-17T00:09:22.450Z,97.08
2023-01-17T00:09:54.406Z,96.99
2023-01-17T00:10:28.483Z,96.87
2023-01-17T00:11:00.474Z,97.19
2023-01-17T00:11:32.642Z,97.42
2023-01-17T00:12:05.607Z,97.50
2023-01-17T00:12:37.641Z,97.67
2023-01-17T00:13:09.530Z,97.82
2023-01-17T00:13:41.365Z,97.29
2023-01-17T00:14:13.207Z,97.49
2023-01-17T00:14:45.109Z,97.99
2023-01-17T00:15:19.650Z,98.32
2023-01-17T00:15:52.162Z,98.42
2023-01-17T00:16:24.091Z,98.37
2023-01-17T00:16:56.346Z,98.22
2023-01-17T00:17:30.917Z,98.12
2023-01-17T00:18:02.761Z,98.13
2023-01-17T00:18:34.602Z,98.11
2023-01-17T00:19:25.054Z,98.02
2023-01-17T00:20:15.974Z,97.87
2023-01-17T00:21:06.403Z,97.98
2023-01-17T00:21:56.757Z,98.44
2023-01-17T00:22:50.262Z,98.52
2023-01-17T00:23:43.213Z,98.64
2023-01-17T00:24:33.625Z,98.10
2023-01-17T00:25:24.392Z,97.72
2023-01-17T00:26:05.364Z,97.83
2023-01-17T00:26:57.226Z,98.01
2023-01-17T00:27:30.587Z,98.16
2023-01-17T00:28:03.171Z,98.54
2023-01-17T00:28:37.741Z,98.90
2023-01-17T00:29:09.563Z,98.97
2023-01-17T00:29:41.351Z,98.91
2023-01-17T00:30:13.504Z,98.74
2023-01-17T00:30:45.804Z,98.71
2023-01-17T00:31:18.064Z,98.16
2023-01-17T00:31:49.871Z,97.62
2023-01-17T00:32:21.689Z,97.60
2023-01-17T00:32:53.801Z,97.70
2023-01-17T00:33:25.803Z,98.17
2023-01-17T00:33:57.595Z,98.38
2023-01-17T00:34:29.379Z,98.36
2023-01-17T00:35:01.177Z,98.37
2023-01-17T00:35:33.726Z,98.25
2023-01-17T00:36:06.840Z,98.35
2023-01-17T00:36:38.647Z,98.03
2023-01-17T00:37:10.491Z,97.83
2023-01-17T00:37:42.476Z,97.85
2023-01-17T00:38:20.652Z,98.17
2023-01-17T00:38:52.505Z,97.92
2023-01-17T00:39:24.279Z,97.83
2023-01-17T00:39:56.154Z,98.00
2023-01-17T00:40:28.202Z,97.90
2023-01-17T00:41:14.368Z,97.06
2023-01-17T00:41:46.213Z,96.86
2023-01-17T00:42:18.023Z,96.62
2023-01-17T00:42:49.817Z,96.54
2023-01-17T00:43:42.226Z,96.99
2023-01-17T00:44:32.608Z,97.12
2023-01-17T00:45:23.757Z,97.04
2023-01-17T00:46:14.215Z,97.87
2023-01-17T00:47:04.656Z,97.60
2023-01-17T00:47:56.904Z,97.46
2023-01-17T00:48:47.947Z,97.81
2023-01-17T00:49:38.341Z,97.02
2023-01-17T00:50:29.006Z,96.41
2023-01-17T00:51:21.984Z,96.63
2023-01-17T00:52:12.892Z,96.58
2023-01-17T00:53:03.250Z,96.41
2023-01-17T00:53:54.384Z,96.62
2023-01-17T00:54:44.742Z,96.69
2023-01-17T00:55:35.138Z,97.17
2023-01-17T00:56:26.105Z,97.16
2023-01-17T00:57:17.095Z,97.75
2023-01-17T00:58:07.481Z,98.12
2023-01-17T00:58:58.342Z,98.26
2023-01-17T00:59:48.783Z,98.67
2023-01-17T01:00:39.474Z,98.97
2023-01-17T01:01:30.042Z,99.27
2023-01-17T01:02:20.740Z,99.13
2023-01-17T01:03:11.165Z,98.29
2023-01-17T01:04:02.219Z,97.30
2023-01-17T01:04:52.659Z,97.73
2023-01-17T01:05:43.516Z,97.89
2023-01-17T01:06:33.907Z,97.71
2023-01-17T01:07:24.457Z,97.95
2023-01-17T01:08:15.849Z,98.02
2023-01-17T01:09:06.721Z,98.24
2023-01-17T01:09:57.186Z,98.45
2023-01-17T01:10:47.790Z,98.38
2023-01-17T01:11:40.264Z,98.51
2023-01-17T01:12:30.531Z,98.24
2023-01-17T01:13:21.079Z,97.53
2023-01-17T01:14:12.142Z,97.44
2023-01-17T01:15:02.595Z,97.43
2023-01-17T01:15:53.076Z,97.28
2023-01-17T01:16:43.528Z,97.60
2023-01-17T01:17:33.851Z,97.23
2023-01-17T01:18:26.372Z,97.00
2023-01-17T01:19:18.213Z,97.20
2023-01-17T01:20:08.767Z,97.43
2023-01-17T01:20:59.321Z,97.66
2023-01-17T01:21:50.659Z,97.24
2023-01-17T01:22:41.036Z,96.91
2023-01-17T01:23:31.578Z,96.65
2023-01-17T01:24:22.617Z,97.32
2023-01-17T01:25:12.856Z,98.11
2023-01-17T01:26:03.247Z,98.37
2023-01-17T01:26:53.707Z,98.58
2023-01-17T01:27:44.084Z,98.47
2023-01-17T01:28:35.003Z,98.35
2023-01-17T01:29:25.705Z,97.69
2023-01-17T01:30:16.115Z,98.36
2023-01-17T01:31:06.852Z,98.64
2023-01-17T01:31:57.620Z,98.66
2023-01-17T01:32:48.022Z,98.58
2023-01-17T01:33:20.373Z,98.42
2023-01-17T01:33:53.455Z,98.17
2023-01-17T01:34:25.927Z,97.84
2023-01-17T01:34:57.773Z,97.93
2023-01-17T01:35:29.950Z,98.38
2023-01-17T01:36:01.838Z,98.50
2023-01-17T01:36:33.670Z,98.84
2023-01-17T01:37:05.548Z,99.16
2023-01-17T01:37:37.372Z,98.90
2023-01-17T01:38:09.190Z,98.52
2023-01-17T01:38:41.017Z,98.36
2023-01-17T01:39:12.869Z,98.44
2023-01-17T01:39:44.994Z,98.47
2023-01-17T01:40:18.383Z,97.89
2023-01-17T01:40:55.604Z,97.93
2023-01-17T01:41:27.494Z,97.89
2023-01-17T01:41:59.324Z,97.88
2023-01-17T01:42:31.194Z,97.25
2023-01-17T01:43:05.764Z,97.27
2023-01-17T01:43:57.810Z,97.34
2023-01-17T01:44:47.142Z,97.27
2023-01-17T01:45:25.601Z,97.25
2023-01-17T01:45:58.771Z,97.07
2023-01-17T01:46:36.978Z,96.96
2023-01-17T01:47:12.411Z,97.12
2023-01-17T01:47:44.866Z,97.20
2023-01-17T01:48:22.326Z,96.96
2023-01-17T01:49:02.320Z,97.36
2023-01-17T01:49:34.265Z,97.55
2023-01-17T01:50:09.822Z,97.69
2023-01-17T01:50:41.957Z,97.84
2023-01-17T01:51:21.714Z,98.03
2023-01-17T01:51:59.692Z,98.02
2023-01-17T01:52:36.837Z,97.88
2023-01-17T01:53:08.705Z,98.09
2023-01-17T01:53:46.458Z,98.13
2023-01-17T01:54:25.555Z,97.89
2023-01-17T01:55:08.112Z,97.94
2023-01-17T01:55:42.018Z,97.55
2023-01-17T01:56:16.214Z,97.24
2023-01-17T01:56:50.628Z,97.30
2023-01-17T01:57:25.544Z,97.18
2023-01-17T01:58:02.268Z,97.67
2023-01-17T01:58:36.883Z,97.36
2023-01-17T01:59:11.236Z,97.36
2023-01-17T01:59:50.192Z,97.61
2023-01-17T02:00:24.931Z,97.63
2023-01-17T02:00:57.327Z,97.54
2023-01-17T02:01:31.020Z,97.11
2023-01-17T02:02:02.956Z,97.13
2023-01-17T02:02:35.557Z,97.42
2023-01-17T02:03:20.089Z,97.80
2023-01-17T02:03:52.384Z,97.91
2023-01-17T02:04:26.450Z,97.59
2023-01-17T02:04:59.762Z,97.61
2023-01-17T02:05:33.752Z,97.14
2023-01-17T02:06:28.803Z,96.95
2023-01-17T02:07:07.378Z,96.94
2023-01-17T02:07:49.070Z,96.60
2023-01-17T02:08:24.121Z,96.99
2023-01-17T02:08:59.721Z,96.84
2023-01-17T02:09:31.813Z,96.86
2023-01-17T02:10:04.704Z,97.07
2023-01-17T02:10:39.333Z,97.71
2023-01-17T02:11:12.041Z,98.44
2023-01-17T02:11:46.829Z,98.31
2023-01-17T02:12:20.054Z,98.33
2023-01-17T02:12:53.239Z,98.65
2023-01-17T02:13:25.223Z,98.73
2023-01-17T02:13:57.244Z,98.72
2023-01-17T02:14:29.210Z,99.11
2023-01-17T02:15:01.430Z,99.14
2023-01-17T02:15:50.973Z,98.79
2023-01-17T02:17:01.366Z,98.06
2023-01-17T02:18:34.135Z,97.81
2023-01-17T02:19:21.224Z,98.58
2023-01-17T02:20:23.082Z,98.87
2023-01-17T02:21:10.180Z,98.64
2023-01-17T02:21:54.106Z,98.44
2023-01-17T02:22:31.669Z,99.23
2023-01-17T02:23:32.604Z,99.44
2023-01-17T02:24:13.445Z,99.28
2023-01-17T02:24:48.029Z,99.11
2023-01-17T02:25:49.517Z,100.00
2023-01-17T02:26:21.311Z,100.00
2023-01-17T02:26:56.530Z,100.00
2023-01-17T02:27:43.697Z,100.00
2023-01-17T02:28:48.086Z,99.83
2023-01-17T02:29:50.801Z,100.00
2023-01-17T02:30:42.455Z,100.00
2023-01-17T02:31:23.075Z,99.19
2023-01-17T02:32:03.213Z,99.64
2023-01-17T02:32:40.765Z,99.67
2023-01-17T02:33:17.131Z,100.00
2023-01-17T02:34:17.658Z,99.94
2023-01-17T02:34:58.368Z,99.11
2023-01-17T02:35:54.694Z,99.18
2023-01-17T02:36:32.864Z,98.82
2023-01-17T02:37:13.064Z,99.34
2023-01-17T02:38:02.679Z,100.00
2023-01-17T02:38:51.752Z,100.00
2023-01-17T02:39:37.315Z,100.00
2023-01-17T02:40:27.556Z,100.00
2023-01-17T02:41:07.847Z,100.00
2023-01-17T02:41:43.718Z,100.00
2023-01-17T02:42:19.816Z,100.00
2023-01-17T02:43:06.516Z,100.00
2023-01-17T02:43:40.243Z,100.00
2023-01-17T02:44:18.151Z,100.00
2023-01-17T02:44:50.125Z,100.00
2023-01-17T02:45:22.161Z,100.00
2023-01-17T02:45:54.126Z,100.00
2023-01-17T02:46:26.054Z,100.00
2023-01-17T02:46:59.341Z,100.00
2023-01-17T02:47:32.140Z,100.00
2023-01-17T02:48:08.163Z,100.00
2023-01-17T02:48:41.081Z,99.46
2023-01-17T02:49:14.543Z,99.45
2023-01-17T02:49:46.371Z,99.68
2023-01-17T02:50:21.892Z,99.67
2023-01-17T02:50:53.671Z,99.58
2023-01-17T02:52:08.078Z,99.75
2023-01-17T02:52:58.975Z,99.48
2023-01-17T02:53:42.003Z,98.93
2023-01-17T02:54:16.623Z,98.69
2023-01-17T02:54:54.220Z,98.26
2023-01-17T02:55:41.084Z,98.38
2023-01-17T02:56:32.572Z,98.50
2023-01-17T02:57:22.681Z,98.90
2023-01-17T02:58:00.630Z,98.49
2023-01-17T02:58:57.128Z,98.31
2023-01-17T02:59:31.497Z,98.20
2023-01-17T03:00:21.461Z,98.55
2023-01-17T03:01:12.192Z,98.22
2023-01-17T03:02:23.302Z,97.53
2023-01-17T03:02:55.359Z,97.66
2023-01-17T03:03:42.766Z,96.95
2023-01-17T03:04:33.019Z,97.45
2023-01-17T03:05:20.642Z,97.26
2023-01-17T03:06:11.696Z,97.29
2023-01-17T03:06:43.467Z,96.69
2023-01-17T03:07:19.723Z,97.04
2023-01-17T03:07:53.774Z,96.99
2023-01-17T03:08:26.789Z,97.24
2023-01-17T03:08:58.677Z,97.62
2023-01-17T03:09:32.634Z,97.13
2023-01-17T03:10:06.728Z,97.53
2023-01-17T03:10:39.898Z,97.81
2023-01-17T03:11:13.286Z,98.33
2023-01-17T03:11:45.639Z,98.21
2023-01-17T03:12:17.481Z,98.55
2023-01-17T03:12:50.238Z,98.65
2023-01-17T03:13:22.174Z,98.98
2023-01-17T03:13:56.778Z,98.88
2023-01-17T03:14:31.277Z,98.79
2023-01-17T03:15:03.762Z,98.90
2023-01-17T03:15:35.637Z,98.99
2023-01-17T03:16:14.958Z,98.54
2023-01-17T03:16:47.387Z,98.71
2023-01-17T03:17:19.625Z,99.43
2023-01-17T03:17:56.069Z,99.84
2023-01-17T03:18:27.949Z,100.00
2023-01-17T03:19:00.328Z,99.85
2023-01-17T03:19:32.247Z,100.00
2023-01-17T03:20:04.573Z,100.00
2023-01-17T03:20:36.424Z,99.97
2023-01-17T03:21:08.302Z,99.98
2023-01-17T03:21:40.379Z,100.00
2023-01-17T03:22:12.218Z,99.95
2023-01-17T03:22:44.179Z,99.72
2023-01-17T03:23:16.007Z,99.75
2023-01-17T03:23:47.892Z,99.89
2023-01-17T03:24:20.029Z,100.00
2023-01-17T03:24:51.921Z,100.00
2023-01-17T03:25:24.241Z,99.97
2023-01-17T03:25:56.125Z,100.00
2023-01-17T03:26:28.098Z,100.00
2023-01-17T03:26:59.951Z,100.00
2023-01-17T03:27:31.991Z,99.36
2023-01-17T03:28:04.216Z,99.35
2023-01-17T03:28:36.100Z,99.43
2023-01-17T03:29:07.979Z,99.23
2023-01-17T03:29:40.200Z,99.26
2023-01-17T03:30:13.123Z,99.29
2023-01-17T03:30:45.166Z,99.34
2023-01-17T03:31:17.976Z,98.85
2023-01-17T03:31:49.864Z,98.60
2023-01-17T03:32:21.746Z,98.73
2023-01-17T03:32:53.598Z,99.16
2023-01-17T03:33:25.457Z,99.71
2023-01-17T03:33:57.312Z,99.70
2023-01-17T03:34:29.477Z,99.32
2023-01-17T03:35:01.639Z,98.73
2023-01-17T03:35:33.721Z,98.87
2023-01-17T03:36:05.813Z,99.21
2023-01-17T03:36:37.758Z,99.24
2023-01-17T03:37:09.623Z,99.58
2023-01-17T03:37:41.691Z,99.68
2023-01-17T03:38:14.169Z,99.44
2023-01-17T03:38:46.030Z,99.12
2023-01-17T03:39:17.850Z,99.21
2023-01-17T03:39:49.688Z,99.26
2023-01-17T03:40:21.878Z,99.56
2023-01-17T03:40:53.770Z,99.53
2023-01-17T03:41:25.636Z,98.85
2023-01-17T03:41:57.510Z,98.68
2023-01-17T03:42:29.361Z,98.76
2023-01-17T03:43:01.173Z,99.33
2023-01-17T03:43:33.223Z,99.22
2023-01-17T03:44:05.732Z,99.13
2023-01-17T03:44:37.765Z,99.45
2023-01-17T03:45:10.157Z,99.50
2023-01-17T03:45:42.393Z,99.43
2023-01-17T03:46:23.708Z,99.43
2023-01-17T03:46:55.566Z,98.91
2023-01-17T03:47:27.388Z,98.49
2023-01-17T03:48:00.026Z,98.66
2023-01-17T03:48:32.161Z,98.20
2023-01-17T03:49:04.025Z,98.05
2023-01-17T03:49:35.885Z,97.84
2023-01-17T03:50:08.371Z,98.03
2023-01-17T03:50:40.260Z,98.16
2023-01-17T03:51:12.394Z,99.02
2023-01-17T03:51:44.232Z,99.41
2023-01-17T03:52:16.070Z,99.57
2023-01-17T03:52:47.927Z,98.94
2023-01-17T03:53:19.761Z,99.06
2023-01-17T03:53:52.063Z,99.74
2023-01-17T03:54:23.983Z,100.00
2023-01-17T03:54:55.896Z,100.00
2023-01-17T03:55:27.751Z,99.71
2023-01-17T03:55:59.638Z,99.21
2023-01-17T03:56:31.751Z,99.13
2023-01-17T03:57:03.639Z,99.64
2023-01-17T03:57:35.485Z,99.89
2023-01-17T03:58:07.405Z,100.00
2023-01-17T03:58:39.243Z,100.00
2023-01-17T03:59:13.161Z,100.00
2023-01-17T03:59:46.093Z,100.00
2023-01-17T04:00:18.495Z,100.00
2023-01-17T04:00:50.640Z,100.00
2023-01-17T04:01:22.580Z,100.00
2023-01-17T04:01:54.534Z,100.00
2023-01-17T04:02:26.456Z,100.00
2023-01-17T04:02:58.449Z,100.00
2023-01-17T04:03:30.329Z,100.00
2023-01-17T04:04:02.206Z,100.00
2023-01-17T04:04:34.156Z,100.00
2023-01-17T04:05:06.429Z,100.00
2023-01-17T04:05:38.359Z,99.97
2023-01-17T04:06:10.506Z,99.93
2023-01-17T04:06:42.430Z,100.00
2023-01-17T04:07:14.284Z,100.00
2023-01-17T04:07:46.195Z,99.71
2023-01-17T04:08:18.010Z,99.32
2023-01-17T04:08:49.875Z,99.07
2023-01-17T04:09:21.784Z,98.71
2023-01-17T04:09:54.182Z,98.87
2023-01-17T04:10:26.158Z,99.19
2023-01-17T04:10:58.808Z,99.27
2023-01-17T04:11:30.890Z,99.03
2023-01-17T04:12:03.148Z,98.93
2023-01-17T04:12:34.989Z,99.08
2023-01-17T04:13:06.815Z,99.50
2023-01-17T04:13:38.656Z,99.18
2023-01-17T04:14:10.518Z,98.89
2023-01-17T04:14:42.350Z,98.83
2023-01-17T04:15:14.291Z,98.76
2023-01-17T04:15:49.027Z,98.80
2023-01-17T04:16:25.345Z,98.89
2023-01-17T04:16:57.646Z,99.06
2023-01-17T04:17:29.735Z,99.06
2023-01-17T04:18:01.947Z,98.77
2023-01-17T04:18:33.864Z,98.03
2023-01-17T04:19:05.719Z,97.80
2023-01-17T04:19:37.796Z,97.26
2023-01-17T04:20:18.540Z,97.12
2023-01-17T04:20:50.946Z,97.23
2023-01-17T04:21:23.058Z,97.40
2023-01-17T04:21:54.924Z,97.42
2023-01-17T04:22:27.247Z,97.65
2023-01-17T04:22:59.565Z,97.60
2023-01-17T04:23:32.058Z,97.94
2023-01-17T04:24:04.116Z,98.08
2023-01-17T04:24:36.335Z,97.36
2023-01-17T04:25:08.632Z,96.92
2023-01-17T04:25:40.523Z,97.11
2023-01-17T04:26:12.639Z,97.49
2023-01-17T04:26:44.457Z,97.47
2023-01-17T04:27:16.339Z,97.40
2023-01-17T04:27:48.452Z,97.75
2023-01-17T04:28:20.315Z,97.73
2023-01-17T04:28:52.221Z,100.00
2023-01-17T04:29:24.295Z,100.00
2023-01-17T04:29:56.662Z,98.12
2023-01-17T04:30:29.384Z,97.25
2023-01-17T04:31:01.286Z,96.40
2023-01-17T04:31:33.269Z,96.62
2023-01-17T04:32:06.106Z,96.83
2023-01-17T04:32:37.970Z,97.26
2023-01-17T04:33:10.150Z,97.56
2023-01-17T04:33:42.011Z,97.63
2023-01-17T04:34:13.935Z,99.70
2023-01-17T04:34:45.798Z,100.00
2023-01-17T04:35:17.665Z,98.66
2023-01-17T04:35:49.480Z,98.50
2023-01-17T04:36:21.435Z,98.45
2023-01-17T04:36:53.466Z,97.75
2023-01-17T04:37:25.554Z,97.92
2023-01-17T04:37:57.434Z,97.86
2023-01-17T04:38:29.604Z,97.31
2023-01-17T04:39:01.437Z,96.90
2023-01-17T04:39:33.282Z,96.95
2023-01-17T04:40:05.893Z,96.82
2023-01-17T04:40:37.750Z,96.87
2023-01-17T04:41:09.802Z,96.45
2023-01-17T04:41:41.690Z,96.58
2023-01-17T04:42:13.553Z,96.41
2023-01-17T04:42:46.089Z,96.09
2023-01-17T04:43:17.955Z,95.89
2023-01-17T04:43:50.126Z,95.95
2023-01-17T04:44:22.051Z,96.47
2023-01-17T04:44:53.883Z,97.01
2023-01-17T04:45:26.001Z,97.38
2023-01-17T04:45:58.637Z,97.74
2023-01-17T04:46:30.974Z,98.08
2023-01-17T04:47:03.341Z,98.43
2023-01-17T04:47:35.178Z,98.64
2023-01-17T04:48:07.872Z,98.63
2023-01-17T04:48:39.807Z,98.55
2023-01-17T04:49:11.998Z,98.63
2023-01-17T04:49:44.266Z,98.61
2023-01-17T04:50:16.249Z,98.07
2023-01-17T04:50:48.100Z,98.04
2023-01-17T04:51:19.943Z,98.20
2023-01-17T04:51:51.835Z,98.08
2023-01-17T04:52:23.688Z,97.86
2023-01-17T04:52:55.548Z,97.73
2023-01-17T04:53:27.760Z,97.48
2023-01-17T04:53:59.647Z,97.23
2023-01-17T04:54:31.765Z,97.51
2023-01-17T04:55:03.769Z,97.42
2023-01-17T04:55:35.648Z,96.81
2023-01-17T04:56:07.824Z,96.76
2023-01-17T04:56:39.674Z,97.10
2023-01-17T04:57:11.544Z,98.15
2023-01-17T04:57:43.394Z,98.58
2023-01-17T04:58:15.239Z,98.37
2023-01-17T04:58:47.052Z,98.38
2023-01-17T04:59:18.953Z,98.28
2023-01-17T04:59:53.504Z,98.64
2023-01-17T05:00:25.603Z,98.64
2023-01-17T05:01:02.268Z,98.18
2023-01-17T05:01:34.228Z,99.04
2023-01-17T05:02:06.230Z,99.38
2023-01-17T05:02:38.127Z,99.31
2023-01-17T05:03:10.470Z,99.32
2023-01-17T05:03:42.379Z,99.61
2023-01-17T05:04:14.210Z,99.32
2023-01-17T05:04:46.048Z,99.13
2023-01-17T05:05:18.183Z,99.04
2023-01-17T05:05:50.062Z,98.89
2023-01-17T05:06:21.922Z,98.83
2023-01-17T05:06:53.847Z,99.08
2023-01-17T05:07:25.746Z,99.51
2023-01-17T05:07:58.450Z,99.76
2023-01-17T05:08:30.469Z,99.79
2023-01-17T05:09:02.941Z,99.34
2023-01-17T05:09:34.911Z,98.87
2023-01-17T05:10:07.068Z,98.01
2023-01-17T05:10:39.562Z,97.12
2023-01-17T05:11:13.068Z,96.90
2023-01-17T05:11:44.902Z,97.44
2023-01-17T05:12:16.805Z,97.83
2023-01-17T05:12:59.562Z,97.76
2023-01-17T05:13:31.388Z,98.06
2023-01-17T05:14:03.222Z,97.49
2023-01-17T05:14:35.152Z,97.46
2023-01-17T05:15:07.571Z,97.59
2023-01-17T05:15:40.103Z,97.74
2023-01-17T05:16:12.023Z,97.89
2023-01-17T05:16:43.882Z,97.74
2023-01-17T05:17:15.731Z,97.81
2023-01-17T05:17:47.527Z,97.80
2023-01-17T05:18:19.710Z,96.68
2023-01-17T05:18:55.120Z,96.58
2023-01-17T05:19:27.612Z,96.78
2023-01-17T05:19:59.519Z,96.99
2023-01-17T05:20:31.520Z,97.31
2023-01-17T05:21:04.233Z,97.27
2023-01-17T05:21:36.120Z,96.22
2023-01-17T05:22:14.915Z,95.96
2023-01-17T05:22:55.495Z,95.84
2023-01-17T05:23:27.397Z,96.08
2023-01-17T05:23:59.237Z,95.48
2023-01-17T05:24:31.654Z,95.75
2023-01-17T05:25:03.555Z,95.98
2023-01-17T05:25:35.947Z,95.83
2023-01-17T05:26:08.188Z,95.91
2023-01-17T05:26:40.807Z,95.94
2023-01-17T05:27:14.180Z,95.95
2023-01-17T05:27:45.997Z,96.67
2023-01-17T05:28:17.833Z,96.82
2023-01-17T05:28:50.797Z,97.03
2023-01-17T05:29:22.623Z,96.86
2023-01-17T05:29:54.442Z,96.50
2023-01-17T05:30:27.847Z,96.49
2023-01-17T05:30:59.791Z,96.52
2023-01-17T05:31:32.271Z,96.72
2023-01-17T05:32:04.631Z,96.58
2023-01-17T05:32:36.496Z,96.67
2023-01-17T05:33:10.142Z,96.06
2023-01-17T05:33:42.493Z,95.15
2023-01-17T05:34:14.401Z,94.92
2023-01-17T05:34:46.259Z,95.24
2023-01-17T05:35:22.473Z,95.25
2023-01-17T05:35:54.465Z,95.76
2023-01-17T05:36:26.383Z,95.79
2023-01-17T05:36:59.138Z,96.03
2023-01-17T05:37:30.998Z,96.61
2023-01-17T05:38:03.091Z,96.87
2023-01-17T05:38:35.177Z,96.30
2023-01-17T05:39:07.069Z,96.04
2023-01-17T05:39:38.901Z,96.50
2023-01-17T05:40:11.581Z,97.20
2023-01-17T05:40:43.429Z,97.25
2023-01-17T05:41:15.304Z,96.80
2023-01-17T05:41:47.341Z,97.30
2023-01-17T05:42:19.540Z,97.54
2023-01-17T05:42:53.956Z,97.46
2023-01-17T05:43:25.852Z,97.26
2023-01-17T05:43:57.755Z,96.82
2023-01-17T05:44:29.629Z,97.08
2023-01-17T05:45:01.521Z,97.47
2023-01-17T05:45:34.194Z,97.43
2023-01-17T05:46:06.127Z,97.44
2023-01-17T05:46:38.120Z,97.29
2023-01-17T05:47:10.111Z,97.00
2023-01-17T05:47:46.190Z,96.70
2023-01-17T05:48:18.194Z,96.27
2023-01-17T05:48:50.136Z,95.69
2023-01-17T05:49:21.998Z,95.50
2023-01-17T05:49:53.815Z,96.08
2023-01-17T05:50:32.029Z,96.51
2023-01-17T05:51:03.963Z,96.41
2023-01-17T05:51:37.868Z,96.57
2023-01-17T05:52:09.864Z,96.39
2023-01-17T05:52:42.132Z,96.14
2023-01-17T05:53:16.359Z,96.21
2023-01-17T05:53:48.211Z,96.30
2023-01-17T05:54:20.099Z,96.08
2023-01-17T05:54:51.999Z,96.05
2023-01-17T05:55:25.915Z,96.20
2023-01-17T05:55:57.793Z,96.47
2023-01-17T05:56:29.658Z,97.06
2023-01-17T05:57:01.492Z,97.26
2023-01-17T05:57:34.252Z,96.89
2023-01-17T05:58:08.735Z,96.84
2023-01-17T05:58:40.920Z,96.90
2023-01-17T05:59:14.277Z,97.01
2023-01-17T05:59:46.294Z,97.30
2023-01-17T06:00:19.082Z,97.44
2023-01-17T06:00:51.333Z,97.55
2023-01-17T06:01:23.279Z,97.70
2023-01-17T06:01:55.125Z,97.85
2023-01-17T06:02:27.304Z,97.11
2023-01-17T06:03:00.493Z,97.16
2023-01-17T06:03:32.317Z,96.71
2023-01-17T06:04:04.330Z,95.98
2023-01-17T06:04:36.366Z,96.10
2023-01-17T06:05:08.545Z,96.38
2023-01-17T06:05:41.293Z,97.22
2023-01-17T06:06:13.627Z,97.09
2023-01-17T06:06:45.493Z,97.11
2023-01-17T06:07:17.358Z,97.37
2023-01-17T06:07:49.825Z,97.51
2023-01-17T06:08:23.482Z,97.46
2023-01-17T06:08:55.338Z,97.49
2023-01-17T06:09:27.182Z,97.80
2023-01-17T06:09:59.000Z,97.99
2023-01-17T06:10:31.626Z,97.81
2023-01-17T06:11:03.531Z,97.82
2023-01-17T06:11:35.663Z,97.88
2023-01-17T06:12:07.600Z,97.24
2023-01-17T06:12:39.412Z,96.83
2023-01-17T06:13:15.229Z,96.64
2023-01-17T06:13:48.783Z,95.82
2023-01-17T06:14:20.647Z,96.16
2023-01-17T06:14:52.517Z,96.93
2023-01-17T06:15:24.436Z,96.54
2023-01-17T06:16:02.633Z,96.65
2023-01-17T06:16:34.563Z,96.60
2023-01-17T06:17:06.745Z,97.32
2023-01-17T06:17:38.915Z,97.52
2023-01-17T06:18:13.614Z,96.58
2023-01-17T06:18:45.531Z,96.42
2023-01-17T06:19:17.688Z,96.77
2023-01-17T06:19:49.555Z,96.43
2023-01-17T06:20:21.396Z,95.78
2023-01-17T06:20:54.837Z,96.01
2023-01-17T06:21:28.918Z,96.43
2023-01-17T06:22:00.765Z,96.60
2023-01-17T06:22:33.848Z,96.57
2023-01-17T06:23:07.592Z,96.70
2023-01-17T06:23:39.488Z,96.71
2023-01-17T06:24:11.420Z,96.69
2023-01-17T06:24:43.268Z,96.04
2023-01-17T06:25:15.208Z,95.59
2023-01-17T06:25:47.576Z,95.74
2023-01-17T06:26:19.707Z,95.91
2023-01-17T06:26:51.571Z,95.85
2023-01-17T06:27:23.548Z,95.65
2023-01-17T06:27:55.753Z,95.53
2023-01-17T06:28:27.601Z,95.64
2023-01-17T06:28:59.476Z,95.44
2023-01-17T06:29:31.369Z,95.42
2023-01-17T06:30:04.269Z,95.70
2023-01-17T06:30:36.671Z,95.47
2023-01-17T06:31:09.350Z,95.86
2023-01-17T06:31:41.352Z,95.88
2023-01-17T06:32:14.268Z,95.15
2023-01-17T06:32:52.869Z,95.09
2023-01-17T06:33:25.027Z,95.41
2023-01-17T06:33:56.863Z,95.17
2023-01-17T06:34:29.285Z,95.75
2023-01-17T06:35:01.110Z,96.69
2023-01-17T06:35:33.359Z,96.29
2023-01-17T06:36:05.641Z,95.64
2023-01-17T06:36:37.690Z,95.73
2023-01-17T06:37:10.172Z,96.16
2023-01-17T06:37:42.025Z,95.96
2023-01-17T06:38:13.850Z,95.70
2023-01-17T06:38:52.537Z,96.36
2023-01-17T06:39:24.473Z,96.04
2023-01-17T06:39:56.316Z,96.23
2023-01-17T06:40:28.926Z,96.03
2023-01-17T06:41:04.745Z,95.84
2023-01-17T06:41:36.682Z,96.41
2023-01-17T06:42:08.489Z,96.07
2023-01-17T06:42:40.673Z,95.79
2023-01-17T06:43:12.540Z,96.01
2023-01-17T06:43:44.352Z,96.49
2023-01-17T06:44:16.472Z,96.16
2023-01-17T06:44:48.314Z,95.51
2023-01-17T06:45:21.122Z,95.37
2023-01-17T06:45:54.880Z,95.25
2023-01-17T06:46:26.797Z,95.08
2023-01-17T06:46:58.652Z,95.11
2023-01-17T06:47:30.685Z,94.98
2023-01-17T06:48:04.247Z,94.94
2023-01-17T06:48:36.118Z,95.47
2023-01-17T06:49:08.000Z,95.67
2023-01-17T06:49:40.208Z,95.65
2023-01-17T06:50:14.763Z,95.88
2023-01-17T06:50:48.292Z,96.00
2023-01-17T06:51:20.194Z,96.40
2023-01-17T06:51:52.057Z,96.89
2023-01-17T06:52:23.903Z,96.16
2023-01-17T06:53:01.250Z,96.83
2023-01-17T06:53:33.116Z,97.12
2023-01-17T06:54:05.104Z,96.86
2023-01-17T06:54:36.941Z,97.23
2023-01-17T06:55:09.577Z,97.06
2023-01-17T06:55:43.608Z,96.40
2023-01-17T06:56:15.496Z,96.38
2023-01-17T06:56:47.306Z,96.33
2023-01-17T06:57:19.172Z,96.35
2023-01-17T06:57:51.199Z,96.40
2023-01-17T06:58:23.825Z,96.55
2023-01-17T06:58:55.716Z,96.54
2023-01-17T06:59:27.658Z,96.52
2023-01-17T06:59:59.630Z,96.63
2023-01-17T07:00:35.323Z,96.49
2023-01-17T07:01:10.112Z,97.43
2023-01-17T07:01:42.085Z,97.82
2023-01-17T07:02:14.514Z,97.24
2023-01-17T07:02:49.661Z,97.34
2023-01-17T07:03:27.172Z,97.57
2023-01-17T07:03:59.258Z,97.32
2023-01-17T07:04:31.242Z,97.10
2023-01-17T07:05:03.114Z,97.38
2023-01-17T07:05:36.270Z,97.37
2023-01-17T07:06:09.574Z,97.39
2023-01-17T07:06:41.729Z,97.67
2023-01-17T07:07:13.579Z,98.16
2023-01-17T07:07:46.234Z,98.44
2023-01-17T07:08:19.319Z,98.29
2023-01-17T07:08:51.274Z,98.53
2023-01-17T07:09:23.163Z,98.80
2023-01-17T07:09:55.043Z,98.83
2023-01-17T07:10:26.945Z,98.76
2023-01-17T07:11:01.504Z,98.56
2023-01-17T07:11:34.790Z,98.59
2023-01-17T07:12:06.909Z,100.00
2023-01-17T07:12:39.078Z,100.00
2023-01-17T07:13:11.576Z,99.08
2023-01-17T07:13:43.449Z,99.02
2023-01-17T07:14:15.388Z,98.10
2023-01-17T07:14:47.345Z,97.82
2023-01-17T07:15:19.205Z,97.58
2023-01-17T07:15:51.107Z,97.42
2023-01-17T07:16:23.385Z,97.98
2023-01-17T07:16:56.287Z,98.25
2023-01-17T07:17:28.112Z,97.27
2023-01-17T07:18:01.751Z,97.38
2023-01-17T07:18:34.756Z,96.89
2023-01-17T07:19:06.610Z,96.72
2023-01-17T07:19:38.482Z,96.57
2023-01-17T07:20:10.786Z,96.34
2023-01-17T07:20:44.007Z,96.38
2023-01-17T07:21:16.001Z,96.30
2023-01-17T07:21:52.321Z,96.70
2023-01-17T07:22:24.216Z,96.46
2023-01-17T07:22:56.254Z,96.57
2023-01-17T07:23:28.181Z,96.88
2023-01-17T07:23:59.985Z,96.91
2023-01-17T07:24:32.852Z,96.90
2023-01-17T07:25:05.346Z,96.96
2023-01-17T07:25:37.222Z,96.73
2023-01-17T07:26:09.275Z,96.83
2023-01-17T07:26:41.198Z,96.78
2023-01-17T07:27:13.353Z,96.80
2023-01-17T07:27:45.196Z,96.44
2023-01-17T07:28:17.039Z,96.28
2023-01-17T07:28:48.939Z,96.38
2023-01-17T07:29:20.825Z,95.99
2023-01-17T07:29:54.197Z,95.97
2023-01-17T07:30:27.048Z,96.08
2023-01-17T07:30:59.045Z,96.19
2023-01-17T07:31:35.322Z,96.10
2023-01-17T07:32:08.859Z,95.40
2023-01-17T07:32:41.084Z,95.22
2023-01-17T07:33:13.089Z,94.97
2023-01-17T07:33:44.944Z,95.00
2023-01-17T07:34:16.881Z,94.78
2023-01-17T07:34:48.802Z,94.86
2023-01-17T07:35:21.635Z,95.05
2023-01-17T07:35:53.607Z,94.89
2023-01-17T07:36:25.486Z,94.90
2023-01-17T07:36:57.398Z,97.51
2023-01-17T07:37:29.266Z,97.49
2023-01-17T07:38:03.161Z,96.62